Terminal Aerodrome Forecast
Issued by NWS Cleveland, OH

Home | Current Version | Previous Version | Text Only | Print | Product List | Glossary Off
Versions: 1 2 3 4 5 6 7 8 9 10 11 12 13 14 15 16 17 18 19 20 21 22 23 24 25 26

814
FTUS41 KCLE 021226 AAA
TAFERI
TAF AMD
KERI 021226Z 0212/0312 05012KT 6SM BR OVC003
      TEMPO 0212/0214 2SM BR
     FM021800 04005KT P6SM OVC015
     FM030000 VRB02KT P6SM OVC035
     FM030600 VRB02KT 4SM BR OVC003=

USA.gov is the U.S. government's official web portal to all federal, state and local government web resources and services.